Aviation Digital Data Service (ADDS)

Output produced by METARs form (1113 UTC 24 April 2017)
found at http://www.aviationweather.gov/adds/metars/
 
EIME 241100Z 33010KT 9999 VCSH BKN020 BKN036 09/05 Q1018
TAF EIME 240800Z 2409/2418 29012KT 9999 FEW013 BKN030 
     BECMG 2409/2411 33012KT 
     TEMPO 2409/2410 7000 -RA BKN012 
     PROB40 
     TEMPO 2410/2416 7000 -SHRA BKN013 
     BECMG 2412/2414 34015G25KT 
     TEMPO 2414/2418 34018G30KT
       
EIKN 241100Z 33016KT 9999 FEW019CB BKN022 09/M01 Q1020 NOSIG
TAF EIKN 241100Z 2412/2512 33016KT 9999 SCT018 SCT025 
     BECMG 2412/2414 36017G30KT 
     TEMPO 2412/2419 -SHRA SCT012 SCT018CB 
     BECMG 2417/2419 35015G25KT 
     BECMG 2419/2421 34012KT 
     TEMPO 2421/2503 5000 -SHRASN BKN010 SCT017CB 
     PROB30 
     TEMPO 2500/2505 3000 -SHSN BKN005 
     TEMPO 2508/2512 01015G27KT -SHRA SCT018CB
       
EICK 241100Z 34011KT 9999 BKN020 BKN035 11/05 Q1020 NOSIG
TAF EICK 241100Z 2412/2512 34012KT 9999 FEW012 BKN030 
     TEMPO 2412/2414 -SHRA BKN015 
     TEMPO 2414/2419 36015G27KT 
     BECMG 2419/2422 01013KT 
     BECMG 2501/2503 34013KT 
     TEMPO 2507/2512 35015G26KT
       
EIDL 241100Z 01019KT 9999 OVC042 07/01 Q1021
TAF EIDL 240800Z 2409/2418 35017KT 9999 FEW015 BKN030 
     TEMPO 2409/2418 36020G32KT 
     TEMPO 2409/2416 7000 -SHRA BKN015
       
EIDW 241100Z 31014KT 9999 FEW016 BKN042 BKN250 09/05 Q1018 NOSIG
TAF EIDW 241100Z 2412/2512 33013KT 9999 FEW015 BKN030 
     TEMPO 2414/2418 35017G28KT 
     BECMG 2422/2424 29015G26KT 
     BECMG 2500/2502 34016G27KT 
     PROB30 
     TEMPO 2500/2503 -SHRA SCT013 SCT018CB 
     BECMG 2503/2505 32012KT 
     TEMPO 2509/2512 34017G30KT SCT018CB
       
EIKY 241100Z 34007KT 310V020 9999 SCT021 BKN025 BKN032 11/07 Q1020
TAF EIKY 240800Z 2409/2418 35010KT 9999 FEW015 BKN030 
     TEMPO 2409/2412 7000 -RA BKN014 
     BECMG 2412/2415 36015G25KT
       
EINN 241100Z 36009KT 9999 FEW016 SCT023 BKN050 10/07 Q1020 NOSIG
TAF EINN 241100Z 2412/2512 33012KT 9999 FEW015 BKN030 
     TEMPO 2414/2419 01017G28KT 
     TEMPO 2502/2505 -SHRA BKN012 SCT018CB 
     TEMPO 2511/2512 34017G28KT
       
EISG 241030Z 34013KT 9999 FEW023 SCT040 BKN055 08/04 Q1021
TAF EISG 240800Z 2409/2418 34015KT 9999 FEW015 BKN030 
     TEMPO 2409/2418 35017G30KT 
     TEMPO 2409/2415 7000 -SHRA BKN015
       
EIWF 241100Z 35009KT 310V040 9999 FEW029 SCT040 12/07 Q1019
TAF EIWF 240800Z 2409/2418 35010KT 9999 FEW015 BKN030 
     PROB40 
     TEMPO 2409/2412 7000 -RA BKN014 
     BECMG 2412/2415 36015G25KT